Chester, South Carolina
Current Conditions -  °F | °C
As of 2:15 PM on Thursday 30 Oct 2014 (Local Time) from KLKR Reporting Station
Clear Clear  
Wind Chill: 68°   Ceiling: Unl
Heat Index: 68°   Visibility: 10mi
Dew Point: 37°   Wind: 5mph
Humidity: 33%   Direction: 20°NNE
Pressure: 30"   Gusts: NA
Location:  34.71°N, 81.21°W
Report Text: KLKR 301815Z AUTO 02004KT 10SM CLR 20/03 A3000 RMK AO2
Loading
Personal Weather Stations






























Interactive Weather Map
Tropical Storm Tracking
New forecast layout! Learn more

10-Day Weather Forecast

Advertisements
Track Severe Weather on mobile